sensor_id;sensor_type;location;lat;lon;timestamp;pressure;altitude;pressure_sealevel;temperature;humidity
69153;BME280;56261;51.580;4.578;2022-12-22T00:01:14;100535.28;;;9.42;100.00
69153;BME280;56261;51.580;4.578;2022-12-22T00:03:58;100533.09;;;9.46;100.00
69153;BME280;56261;51.580;4.578;2022-12-22T00:06:42;100525.13;;;9.38;100.00
69153;BME280;56261;51.580;4.578;2022-12-22T00:09:25;100526.28;;;9.43;100.00
69153;BME280;56261;51.580;4.578;2022-12-22T00:12:11;100516.00;;;9.40;100.00
69153;BME280;56261;51.580;4.578;2022-12-22T00:14:55;100509.97;;;9.46;100.00
69153;BME280;56261;51.580;4.578;2022-12-22T00:17:39;100515.84;;;9.33;100.00
69153;BME280;56261;51.580;4.578;2022-12-22T00:20:23;100516.00;;;9.40;100.00
69153;BME280;56261;51.580;4.578;2022-12-22T00:23:08;100520.97;;;9.35;100.00
69153;BME280;56261;51.580;4.578;2022-12-22T00:25:53;100513.13;;;9.42;100.00
69153;BME280;56261;51.580;4.578;2022-12-22T00:28:37;100508.16;;;9.39;100.00
69153;BME280;56261;51.580;4.578;2022-12-22T00:31:22;100501.50;;;9.43;100.00
69153;BME280;56261;51.580;4.578;2022-12-22T00:34:15;100505.16;;;9.50;100.00
69153;BME280;56261;51.580;4.578;2022-12-22T00:37:00;100508.81;;;9.49;100.00
69153;BME280;56261;51.580;4.578;2022-12-22T00:39:44;100493.47;;;9.51;100.00
69153;BME280;56261;51.580;4.578;2022-12-22T00:42:29;100485.03;;;9.47;100.00
69153;BME280;56261;51.580;4.578;2022-12-22T00:45:12;100475.88;;;9.42;100.00
69153;BME280;56261;51.580;4.578;2022-12-22T00:47:57;100480.53;;;9.48;100.00
69153;BME280;56261;51.580;4.578;2022-12-22T00:50:41;100479.53;;;9.49;100.00
69153;BME280;56261;51.580;4.578;2022-12-22T00:53:25;100468.56;;;9.44;100.00
69153;BME280;56261;51.580;4.578;2022-12-22T00:56:09;100470.69;;;9.48;100.00
69153;BME280;56261;51.580;4.578;2022-12-22T00:58:55;100456.88;;;9.53;100.00
69153;BME280;56261;51.580;4.578;2022-12-22T01:01:40;100459.50;;;9.61;100.00
69153;BME280;56261;51.580;4.578;2022-12-22T01:04:24;100461.72;;;9.49;100.00
69153;BME280;56261;51.580;4.578;2022-12-22T01:07:13;100448.41;;;9.49;100.00
69153;BME280;56261;51.580;4.578;2022-12-22T01:09:58;100460.06;;;9.48;100.00
69153;BME280;56261;51.580;4.578;2022-12-22T01:12:43;100461.69;;;9.57;100.00
69153;BME280;56261;51.580;4.578;2022-12-22T01:15:28;100460.34;;;9.62;100.00
69153;BME280;56261;51.580;4.578;2022-12-22T01:18:12;100462.84;;;9.55;100.00
69153;BME280;56261;51.580;4.578;2022-12-22T01:20:57;100452.88;;;9.57;100.00
69153;BME280;56261;51.580;4.578;2022-12-22T01:23:41;100447.22;;;9.60;100.00
69153;BME280;56261;51.580;4.578;2022-12-22T01:26:25;100444.88;;;9.57;100.00
69153;BME280;56261;51.580;4.578;2022-12-22T01:29:10;100434.19;;;9.65;100.00
69153;BME280;56261;51.580;4.578;2022-12-22T01:31:54;100428.56;;;9.60;100.00
69153;BME280;56261;51.580;4.578;2022-12-22T01:34:38;100428.88;;;9.65;100.00
69153;BME280;56261;51.580;4.578;2022-12-22T01:37:22;100429.91;;;9.56;100.00
69153;BME280;56261;51.580;4.578;2022-12-22T01:40:25;100424.75;;;9.54;100.00
69153;BME280;56261;51.580;4.578;2022-12-22T01:43:18;100417.78;;;9.53;100.00
69153;BME280;56261;51.580;4.578;2022-12-22T01:46:28;100415.88;;;9.62;100.00
69153;BME280;56261;51.580;4.578;2022-12-22T01:49:15;100421.41;;;9.61;100.00
69153;BME280;56261;51.580;4.578;2022-12-22T01:52:02;100422.22;;;9.61;100.00
69153;BME280;56261;51.580;4.578;2022-12-22T01:54:47;100416.22;;;9.67;100.00
69153;BME280;56261;51.580;4.578;2022-12-22T01:57:32;100421.34;;;9.69;100.00
69153;BME280;56261;51.580;4.578;2022-12-22T02:00:16;100420.06;;;9.65;100.00
69153;BME280;56261;51.580;4.578;2022-12-22T02:03:01;100415.06;;;9.62;100.00
69153;BME280;56261;51.580;4.578;2022-12-22T02:12:31;100403.44;;;9.63;100.00
69153;BME280;56261;51.580;4.578;2022-12-22T02:15:49;100401.94;;;9.60;100.00
69153;BME280;56261;51.580;4.578;2022-12-22T02:22:15;100403.47;;;9.54;100.00
69153;BME280;56261;51.580;4.578;2022-12-22T02:25:10;100402.78;;;9.61;100.00
69153;BME280;56261;51.580;4.578;2022-12-22T02:27:56;100397.31;;;9.54;100.00
69153;BME280;56261;51.580;4.578;2022-12-22T02:30:41;100404.28;;;9.55;100.00
69153;BME280;56261;51.580;4.578;2022-12-22T02:33:25;100389.66;;;9.51;100.00
69153;BME280;56261;51.580;4.578;2022-12-22T02:39:04;100393.13;;;9.60;100.00
69153;BME280;56261;51.580;4.578;2022-12-22T02:47:54;100375.22;;;9.45;100.00
69153;BME280;56261;51.580;4.578;2022-12-22T02:50:47;100369.25;;;9.43;100.00
69153;BME280;56261;51.580;4.578;2022-12-22T02:53:33;100367.75;;;9.41;100.00
69153;BME280;56261;51.580;4.578;2022-12-22T02:56:18;100356.94;;;9.42;100.00
69153;BME280;56261;51.580;4.578;2022-12-22T02:59:02;100344.50;;;9.34;100.00
69153;BME280;56261;51.580;4.578;2022-12-22T03:01:46;100344.13;;;9.38;100.00
69153;BME280;56261;51.580;4.578;2022-12-22T03:04:30;100346.47;;;9.41;100.00
69153;BME280;56261;51.580;4.578;2022-12-22T03:07:14;100337.47;;;9.42;100.00
69153;BME280;56261;51.580;4.578;2022-12-22T03:09:58;100340.66;;;9.37;100.00
69153;BME280;56261;51.580;4.578;2022-12-22T03:12:41;100329.88;;;9.30;100.00
69153;BME280;56261;51.580;4.578;2022-12-22T03:15:25;100328.03;;;9.31;100.00
69153;BME280;56261;51.580;4.578;2022-12-22T03:18:10;100324.38;;;9.32;100.00
69153;BME280;56261;51.580;4.578;2022-12-22T03:20:55;100331.19;;;9.34;100.00
69153;BME280;56261;51.580;4.578;2022-12-22T03:23:40;100337.16;;;9.37;100.00
69153;BME280;56261;51.580;4.578;2022-12-22T03:26:24;100338.81;;;9.38;100.00
69153;BME280;56261;51.580;4.578;2022-12-22T03:28:50;100335.66;;;9.42;100.00
69153;BME280;56261;51.580;4.578;2022-12-22T03:31:15;100329.16;;;9.45;100.00
69153;BME280;56261;51.580;4.578;2022-12-22T03:33:41;100327.47;;;9.44;100.00
69153;BME280;56261;51.580;4.578;2022-12-22T03:36:07;100316.19;;;9.42;100.00
69153;BME280;56261;51.580;4.578;2022-12-22T03:38:33;100321.19;;;9.37;100.00
69153;BME280;56261;51.580;4.578;2022-12-22T03:40:58;100323.03;;;9.36;100.00
69153;BME280;56261;51.580;4.578;2022-12-22T03:43:24;100326.88;;;9.33;100.00
69153;BME280;56261;51.580;4.578;2022-12-22T03:46:13;100335.00;;;9.40;100.00
69153;BME280;56261;51.580;4.578;2022-12-22T03:48:39;100341.59;;;9.44;100.00
69153;BME280;56261;51.580;4.578;2022-12-22T03:51:05;100335.47;;;9.44;100.00
69153;BME280;56261;51.580;4.578;2022-12-22T03:53:30;100339.47;;;9.40;100.00
69153;BME280;56261;51.580;4.578;2022-12-22T03:55:55;100344.47;;;9.43;100.00
69153;BME280;56261;51.580;4.578;2022-12-22T03:58:21;100341.81;;;9.43;100.00
69153;BME280;56261;51.580;4.578;2022-12-22T04:00:46;100341.97;;;9.41;100.00
69153;BME280;56261;51.580;4.578;2022-12-22T04:03:11;100351.94;;;9.47;100.00
69153;BME280;56261;51.580;4.578;2022-12-22T04:05:38;100344.47;;;9.43;100.00
69153;BME280;56261;51.580;4.578;2022-12-22T04:08:04;100350.78;;;9.42;100.00
69153;BME280;56261;51.580;4.578;2022-12-22T04:10:29;100340.72;;;9.29;100.00
69153;BME280;56261;51.580;4.578;2022-12-22T04:13:13;100348.50;;;9.30;100.00
69153;BME280;56261;51.580;4.578;2022-12-22T04:15:38;100348.63;;;9.37;100.00
69153;BME280;56261;51.580;4.578;2022-12-22T04:18:03;100345.66;;;9.40;100.00
69153;BME280;56261;51.580;4.578;2022-12-22T04:20:29;100349.69;;;9.28;100.00
69153;BME280;56261;51.580;4.578;2022-12-22T04:22:55;100352.63;;;9.41;100.00
69153;BME280;56261;51.580;4.578;2022-12-22T04:25:22;100354.28;;;9.42;100.00
69153;BME280;56261;51.580;4.578;2022-12-22T04:27:47;100350.59;;;9.43;100.00
69153;BME280;56261;51.580;4.578;2022-12-22T04:30:13;100350.38;;;9.53;100.00
69153;BME280;56261;51.580;4.578;2022-12-22T04:32:39;100358.06;;;9.48;100.00
69153;BME280;56261;51.580;4.578;2022-12-22T04:35:05;100357.44;;;9.38;100.00
69153;BME280;56261;51.580;4.578;2022-12-22T04:37:31;100364.06;;;9.50;100.00
69153;BME280;56261;51.580;4.578;2022-12-22T04:39:56;100354.91;;;9.44;100.00
69153;BME280;56261;51.580;4.578;2022-12-22T04:42:22;100357.31;;;9.31;100.00
69153;BME280;56261;51.580;4.578;2022-12-22T04:44:48;100368.84;;;9.23;100.00
69153;BME280;56261;51.580;4.578;2022-12-22T04:47:13;100363.94;;;9.35;100.00
69153;BME280;56261;51.580;4.578;2022-12-22T04:49:38;100366.63;;;9.35;100.00
69153;BME280;56261;51.580;4.578;2022-12-22T04:52:04;100367.84;;;9.24;100.00
69153;BME280;56261;51.580;4.578;2022-12-22T04:54:30;100376.06;;;9.38;100.00
69153;BME280;56261;51.580;4.578;2022-12-22T04:56:55;100380.28;;;9.32;100.00
69153;BME280;56261;51.580;4.578;2022-12-22T04:59:20;100376.44;;;9.34;100.00
69153;BME280;56261;51.580;4.578;2022-12-22T05:01:46;100378.28;;;9.34;100.00
69153;BME280;56261;51.580;4.578;2022-12-22T05:04:11;100378.97;;;9.28;100.00
69153;BME280;56261;51.580;4.578;2022-12-22T05:06:37;100378.97;;;9.28;100.00
69153;BME280;56261;51.580;4.578;2022-12-22T05:09:02;100386.94;;;9.28;100.00
69153;BME280;56261;51.580;4.578;2022-12-22T05:11:28;100388.13;;;9.25;100.00
69153;BME280;56261;51.580;4.578;2022-12-22T05:13:56;100381.47;;;9.21;100.00
69153;BME280;56261;51.580;4.578;2022-12-22T05:16:21;100393.09;;;9.28;100.00
69153;BME280;56261;51.580;4.578;2022-12-22T05:18:47;100397.28;;;9.14;100.00
69153;BME280;56261;51.580;4.578;2022-12-22T05:21:15;100410.75;;;9.13;100.00
69153;BME280;56261;51.580;4.578;2022-12-22T05:23:41;100396.81;;;9.11;100.00
69153;BME280;56261;51.580;4.578;2022-12-22T05:26:06;100414.44;;;9.04;100.00
69153;BME280;56261;51.580;4.578;2022-12-22T05:28:32;100414.59;;;9.10;100.00
69153;BME280;56261;51.580;4.578;2022-12-22T05:31:13;100421.78;;;9.02;100.00
69153;BME280;56261;51.580;4.578;2022-12-22T05:33:39;100429.94;;;9.00;100.00
69153;BME280;56261;51.580;4.578;2022-12-22T05:36:05;100429.78;;;8.93;100.00
69153;BME280;56261;51.580;4.578;2022-12-22T05:38:30;100441.91;;;8.96;100.00
69153;BME280;56261;51.580;4.578;2022-12-22T05:40:56;100449.56;;;8.91;100.00
69153;BME280;56261;51.580;4.578;2022-12-22T05:43:21;100454.69;;;8.92;100.00
69153;BME280;56261;51.580;4.578;2022-12-22T05:45:46;100442.41;;;8.83;100.00
69153;BME280;56261;51.580;4.578;2022-12-22T05:48:12;100461.03;;;8.83;100.00
69153;BME280;56261;51.580;4.578;2022-12-22T05:50:38;100456.38;;;8.85;100.00
69153;BME280;56261;51.580;4.578;2022-12-22T05:53:05;100460.06;;;8.76;100.00
69153;BME280;56261;51.580;4.578;2022-12-22T05:55:31;100452.75;;;8.78;100.00
69153;BME280;56261;51.580;4.578;2022-12-22T05:57:56;100446.28;;;8.64;100.00
69153;BME280;56261;51.580;4.578;2022-12-22T06:00:27;100456.06;;;8.64;100.00
69153;BME280;56261;51.580;4.578;2022-12-22T06:02:52;100451.91;;;8.61;100.00
69153;BME280;56261;51.580;4.578;2022-12-22T06:05:18;100449.56;;;8.50;100.00
69153;BME280;56261;51.580;4.578;2022-12-22T06:07:43;100459.88;;;8.61;100.00
69153;BME280;56261;51.580;4.578;2022-12-22T06:10:09;100463.84;;;8.57;100.00
69153;BME280;56261;51.580;4.578;2022-12-22T06:12:35;100466.69;;;8.64;100.00
69153;BME280;56261;51.580;4.578;2022-12-22T06:15:00;100488.78;;;8.56;100.00
69153;BME280;56261;51.580;4.578;2022-12-22T06:17:25;100488.28;;;8.52;100.00
69153;BME280;56261;51.580;4.578;2022-12-22T06:19:51;100490.94;;;8.52;100.00
69153;BME280;56261;51.580;4.578;2022-12-22T06:22:16;100488.28;;;8.52;100.00
69153;BME280;56261;51.580;4.578;2022-12-22T06:24:42;100500.44;;;8.55;100.00
69153;BME280;56261;51.580;4.578;2022-12-22T06:27:07;100494.59;;;8.51;100.00
69153;BME280;56261;51.580;4.578;2022-12-22T06:29:35;100491.94;;;8.43;100.00
69153;BME280;56261;51.580;4.578;2022-12-22T06:32:00;100497.44;;;8.42;100.00
69153;BME280;56261;51.580;4.578;2022-12-22T06:34:26;100504.34;;;8.35;100.00
69153;BME280;56261;51.580;4.578;2022-12-22T06:36:51;100508.16;;;8.32;100.00
69153;BME280;56261;51.580;4.578;2022-12-22T06:39:17;100521.09;;;8.27;100.00
69153;BME280;56261;51.580;4.578;2022-12-22T06:41:42;100525.59;;;8.35;100.00
69153;BME280;56261;51.580;4.578;2022-12-22T06:44:26;100524.44;;;8.29;100.00
69153;BME280;56261;51.580;4.578;2022-12-22T06:46:52;100526.56;;;8.25;100.00
69153;BME280;56261;51.580;4.578;2022-12-22T06:49:18;100536.53;;;8.23;100.00
69153;BME280;56261;51.580;4.578;2022-12-22T06:51:43;100534.53;;;8.25;100.00
69153;BME280;56261;51.580;4.578;2022-12-22T06:54:08;100537.00;;;8.19;100.00
69153;BME280;56261;51.580;4.578;2022-12-22T06:56:34;100534.84;;;8.14;100.00
69153;BME280;56261;51.580;4.578;2022-12-22T06:58:59;100545.63;;;8.13;100.00
69153;BME280;56261;51.580;4.578;2022-12-22T07:11:12;100551.16;;;7.85;100.00
69153;BME280;56261;51.580;4.578;2022-12-22T07:13:37;100562.06;;;7.74;100.00
69153;BME280;56261;51.580;4.578;2022-12-22T07:16:04;100552.47;;;7.73;100.00
69153;BME280;56261;51.580;4.578;2022-12-22T07:18:32;100567.72;;;7.71;100.00
69153;BME280;56261;51.580;4.578;2022-12-22T07:20:59;100570.66;;;7.67;100.00
69153;BME280;56261;51.580;4.578;2022-12-22T07:23:25;100577.25;;;7.63;100.00
69153;BME280;56261;51.580;4.578;2022-12-22T07:25:51;100578.94;;;7.64;100.00
69153;BME280;56261;51.580;4.578;2022-12-22T07:28:17;100594.03;;;7.64;100.00
69153;BME280;56261;51.580;4.578;2022-12-22T07:30:42;100594.53;;;7.59;100.00
69153;BME280;56261;51.580;4.578;2022-12-22T07:33:08;100587.47;;;7.50;100.00
69153;BME280;56261;51.580;4.578;2022-12-22T07:35:33;100595.75;;;7.47;100.00
69153;BME280;56261;51.580;4.578;2022-12-22T07:37:59;100594.00;;;7.56;100.00
69153;BME280;56261;51.580;4.578;2022-12-22T07:40:24;100604.72;;;7.46;100.00
69153;BME280;56261;51.580;4.578;2022-12-22T07:42:55;100596.06;;;7.44;100.00
69153;BME280;56261;51.580;4.578;2022-12-22T07:45:20;100579.34;;;7.25;100.00
69153;BME280;56261;51.580;4.578;2022-12-22T07:47:46;100602.47;;;7.33;100.00
69153;BME280;56261;51.580;4.578;2022-12-22T07:50:14;100610.41;;;7.33;100.00
69153;BME280;56261;51.580;4.578;2022-12-22T07:53:01;100621.16;;;7.32;100.00
69153;BME280;56261;51.580;4.578;2022-12-22T07:55:29;100633.81;;;7.38;100.00
69153;BME280;56261;51.580;4.578;2022-12-22T07:57:54;100633.69;;;7.39;100.00
69153;BME280;56261;51.580;4.578;2022-12-22T08:00:21;100640.78;;;7.39;100.00
69153;BME280;56261;51.580;4.578;2022-12-22T08:02:51;100655.06;;;7.38;100.00
69153;BME280;56261;51.580;4.578;2022-12-22T08:05:17;100663.63;;;7.32;100.00
69153;BME280;56261;51.580;4.578;2022-12-22T08:07:42;100659.81;;;7.34;100.00
69153;BME280;56261;51.580;4.578;2022-12-22T08:10:09;100655.59;;;7.23;100.00
69153;BME280;56261;51.580;4.578;2022-12-22T08:12:38;100660.38;;;7.20;100.00
69153;BME280;56261;51.580;4.578;2022-12-22T08:15:05;100668.09;;;7.13;100.00
69153;BME280;56261;51.580;4.578;2022-12-22T08:17:30;100673.41;;;7.13;100.00
69153;BME280;56261;51.580;4.578;2022-12-22T08:19:56;100684.47;;;7.09;100.00
69153;BME280;56261;51.580;4.578;2022-12-22T08:22:22;100682.31;;;7.12;100.00
69153;BME280;56261;51.580;4.578;2022-12-22T08:24:53;100695.22;;;7.07;100.00
69153;BME280;56261;51.580;4.578;2022-12-22T08:27:41;100703.50;;;7.04;100.00
69153;BME280;56261;51.580;4.578;2022-12-22T08:30:09;100718.72;;;7.02;100.00
69153;BME280;56261;51.580;4.578;2022-12-22T08:32:36;100724.09;;;7.10;100.00
69153;BME280;56261;51.580;4.578;2022-12-22T08:35:03;100727.03;;;7.07;100.00
69153;BME280;56261;51.580;4.578;2022-12-22T08:37:30;100726.53;;;7.03;100.00
69153;BME280;56261;51.580;4.578;2022-12-22T08:40:02;100740.22;;;6.99;100.00
69153;BME280;56261;51.580;4.578;2022-12-22T08:42:29;100746.50;;;6.98;100.00
69153;BME280;56261;51.580;4.578;2022-12-22T08:44:54;100749.97;;;6.98;100.00
69153;BME280;56261;51.580;4.578;2022-12-22T08:47:21;100751.06;;;7.05;100.00
69153;BME280;56261;51.580;4.578;2022-12-22T08:49:48;100741.69;;;7.11;100.00
69153;BME280;56261;51.580;4.578;2022-12-22T08:52:14;100739.03;;;7.11;100.00
69153;BME280;56261;51.580;4.578;2022-12-22T08:54:39;100730.28;;;7.01;100.00
69153;BME280;56261;51.580;4.578;2022-12-22T08:57:05;100731.44;;;7.16;100.00
69153;BME280;56261;51.580;4.578;2022-12-22T08:59:30;100724.47;;;7.15;100.00
69153;BME280;56261;51.580;4.578;2022-12-22T09:01:56;100737.16;;;7.21;100.00
69153;BME280;56261;51.580;4.578;2022-12-22T09:04:21;100735.91;;;7.16;100.00
69153;BME280;56261;51.580;4.578;2022-12-22T09:06:50;100740.41;;;7.15;100.00
69153;BME280;56261;51.580;4.578;2022-12-22T09:09:16;100747.22;;;7.18;100.00
69153;BME280;56261;51.580;4.578;2022-12-22T09:11:42;100738.56;;;7.16;100.00
69153;BME280;56261;51.580;4.578;2022-12-22T09:14:10;100734.28;;;7.33;100.00
69153;BME280;56261;51.580;4.578;2022-12-22T09:16:36;100759.94;;;7.50;100.00
69153;BME280;56261;51.580;4.578;2022-12-22T09:19:01;100754.03;;;7.74;100.00
69153;BME280;56261;51.580;4.578;2022-12-22T09:21:27;100768.81;;;7.59;100.00
69153;BME280;56261;51.580;4.578;2022-12-22T09:23:54;100773.53;;;7.65;100.00
69153;BME280;56261;51.580;4.578;2022-12-22T09:26:22;100780.13;;;7.79;100.00
69153;BME280;56261;51.580;4.578;2022-12-22T09:28:48;100781.22;;;7.68;100.00
69153;BME280;56261;51.580;4.578;2022-12-22T09:31:14;100772.38;;;7.32;100.00
69153;BME280;56261;51.580;4.578;2022-12-22T09:33:39;100791.25;;;7.28;100.00
69153;BME280;56261;51.580;4.578;2022-12-22T09:36:06;100790.13;;;7.31;100.00
69153;BME280;56261;51.580;4.578;2022-12-22T09:38:32;100789.59;;;7.27;100.00
69153;BME280;56261;51.580;4.578;2022-12-22T09:40:58;100764.16;;;7.07;100.00
69153;BME280;56261;51.580;4.578;2022-12-22T09:43:29;100786.56;;;7.22;100.00
69153;BME280;56261;51.580;4.578;2022-12-22T09:45:55;100784.91;;;7.21;100.00
69153;BME280;56261;51.580;4.578;2022-12-22T09:48:28;100785.41;;;7.25;100.00
69153;BME280;56261;51.580;4.578;2022-12-22T09:50:57;100783.31;;;7.28;100.00
69153;BME280;56261;51.580;4.578;2022-12-22T09:53:23;100782.72;;;7.35;100.00
69153;BME280;56261;51.580;4.578;2022-12-22T09:55:50;100784.75;;;7.41;100.00
69153;BME280;56261;51.580;4.578;2022-12-22T10:00:47;100791.78;;;7.50;100.00
69153;BME280;56261;51.580;4.578;2022-12-22T10:06:00;100786.81;;;7.65;100.00
69153;BME280;56261;51.580;4.578;2022-12-22T10:08:31;100794.16;;;7.71;100.00
69153;BME280;56261;51.580;4.578;2022-12-22T10:10:56;100788.53;;;7.56;100.00
69153;BME280;56261;51.580;4.578;2022-12-22T10:13:22;100795.22;;;7.60;100.00
69153;BME280;56261;51.580;4.578;2022-12-22T10:15:48;100788.63;;;7.64;100.00
69153;BME280;56261;51.580;4.578;2022-12-22T10:18:28;100785.28;;;7.62;100.00
69153;BME280;56261;51.580;4.578;2022-12-22T10:21:12;100792.13;;;7.65;100.00
69153;BME280;56261;51.580;4.578;2022-12-22T10:23:45;100810.38;;;7.50;100.00
69153;BME280;56261;51.580;4.578;2022-12-22T10:26:21;100810.53;;;7.48;100.00
69153;BME280;56261;51.580;4.578;2022-12-22T10:28:58;100817.13;;;7.44;100.00
69153;BME280;56261;51.580;4.578;2022-12-22T10:31:26;100818.66;;;7.47;100.00
69153;BME280;56261;51.580;4.578;2022-12-22T10:33:55;100828.25;;;7.30;100.00
69153;BME280;56261;51.580;4.578;2022-12-22T10:36:24;100830.00;;;7.21;100.00
69153;BME280;56261;51.580;4.578;2022-12-22T10:39:05;100827.72;;;7.26;100.00
69153;BME280;56261;51.580;4.578;2022-12-22T10:41:36;100839.28;;;7.25;100.00
69153;BME280;56261;51.580;4.578;2022-12-22T10:44:30;100844.25;;;7.38;100.00
69153;BME280;56261;51.580;4.578;2022-12-22T10:47:00;100836.06;;;7.32;100.00
69153;BME280;56261;51.580;4.578;2022-12-22T10:49:36;100835.53;;;7.28;100.00
69153;BME280;56261;51.580;4.578;2022-12-22T10:54:43;100849.94;;;7.43;100.00
69153;BME280;56261;51.580;4.578;2022-12-22T11:02:28;100840.75;;;7.20;100.00
69153;BME280;56261;51.580;4.578;2022-12-22T11:05:09;100843.63;;;7.26;100.00
69153;BME280;56261;51.580;4.578;2022-12-22T11:07:37;100839.41;;;7.34;100.00
69153;BME280;56261;51.580;4.578;2022-12-22T11:12:58;100851.63;;;7.44;100.00
69153;BME280;56261;51.580;4.578;2022-12-22T11:15:47;100838.81;;;7.40;100.00
69153;BME280;56261;51.580;4.578;2022-12-22T11:21:21;100865.34;;;7.40;100.00
69153;BME280;56261;51.580;4.578;2022-12-22T11:24:05;100863.31;;;7.52;100.00
69153;BME280;56261;51.580;4.578;2022-12-22T11:29:27;100849.59;;;7.74;100.00
69153;BME280;56261;51.580;4.578;2022-12-22T11:32:15;100845.13;;;7.75;100.00
69153;BME280;56261;51.580;4.578;2022-12-22T11:40:41;100819.66;;;8.00;100.00
69153;BME280;56261;51.580;4.578;2022-12-22T11:49:21;100820.09;;;8.13;100.00
69153;BME280;56261;51.580;4.578;2022-12-22T11:55:16;100830.06;;;8.19;100.00
69153;BME280;56261;51.580;4.578;2022-12-22T11:58:14;100818.13;;;8.15;100.00
69153;BME280;56261;51.580;4.578;2022-12-22T12:00:47;100806.81;;;8.13;100.00
69153;BME280;56261;51.580;4.578;2022-12-22T12:06:21;100793.34;;;8.15;100.00
69153;BME280;56261;51.580;4.578;2022-12-22T12:11:46;100799.66;;;8.14;100.00
69153;BME280;56261;51.580;4.578;2022-12-22T12:14:23;100794.72;;;8.19;100.00
69153;BME280;56261;51.580;4.578;2022-12-22T12:17:03;100793.19;;;8.16;100.00
69153;BME280;56261;51.580;4.578;2022-12-22T12:22:31;100787.16;;;8.32;100.00
69153;BME280;56261;51.580;4.578;2022-12-22T12:25:00;100780.41;;;8.38;100.00
69153;BME280;56261;51.580;4.578;2022-12-22T12:30:46;100769.09;;;8.36;100.00
69153;BME280;56261;51.580;4.578;2022-12-22T12:33:21;100766.94;;;8.39;100.00
69153;BME280;56261;51.580;4.578;2022-12-22T12:44:16;100758.22;;;8.47;100.00
69153;BME280;56261;51.580;4.578;2022-12-22T12:51:58;100756.75;;;8.52;100.00
69153;BME280;56261;51.580;4.578;2022-12-22T13:10:32;100738.94;;;8.87;100.00
69153;BME280;56261;51.580;4.578;2022-12-22T13:12:58;100729.47;;;8.85;100.00
69153;BME280;56261;51.580;4.578;2022-12-22T13:15:37;100728.91;;;9.16;100.00
69153;BME280;56261;51.580;4.578;2022-12-22T13:20:54;100717.91;;;9.19;100.00
69153;BME280;56261;51.580;4.578;2022-12-22T13:23:20;100714.06;;;9.13;100.00
69153;BME280;56261;51.580;4.578;2022-12-22T13:25:55;100716.25;;;9.09;100.00
69153;BME280;56261;51.580;4.578;2022-12-22T13:28:24;100707.78;;;9.14;100.00
69153;BME280;56261;51.580;4.578;2022-12-22T13:30:57;100702.09;;;9.17;100.00
69153;BME280;56261;51.580;4.578;2022-12-22T13:33:28;100703.44;;;9.21;100.00
69153;BME280;56261;51.580;4.578;2022-12-22T13:35:56;100696.44;;;9.12;100.00
69153;BME280;56261;51.580;4.578;2022-12-22T13:38:30;100700.94;;;9.11;100.00
69153;BME280;56261;51.580;4.578;2022-12-22T13:40:57;100695.78;;;9.10;100.00
69153;BME280;56261;51.580;4.578;2022-12-22T13:43:25;100691.47;;;9.09;100.00
69153;BME280;56261;51.580;4.578;2022-12-22T13:45:54;100688.63;;;9.02;100.00
69153;BME280;56261;51.580;4.578;2022-12-22T13:48:43;100695.94;;;9.00;100.00
69153;BME280;56261;51.580;4.578;2022-12-22T13:51:29;100682.31;;;9.03;100.00
69153;BME280;56261;51.580;4.578;2022-12-22T13:56:35;100686.78;;;8.94;100.00
69153;BME280;56261;51.580;4.578;2022-12-22T13:59:02;100674.31;;;9.03;100.00
69153;BME280;56261;51.580;4.578;2022-12-22T14:01:28;100670.84;;;9.03;100.00
69153;BME280;56261;51.580;4.578;2022-12-22T14:03:58;100669.66;;;8.97;100.00
69153;BME280;56261;51.580;4.578;2022-12-22T14:06:37;100661.50;;;8.90;100.00
69153;BME280;56261;51.580;4.578;2022-12-22T14:11:37;100653.81;;;8.79;100.00
69153;BME280;56261;51.580;4.578;2022-12-22T14:14:09;100651.50;;;8.76;100.00
69153;BME280;56261;51.580;4.578;2022-12-22T14:16:46;100649.66;;;8.77;100.00
69153;BME280;56261;51.580;4.578;2022-12-22T14:19:13;100643.19;;;8.71;100.00
69153;BME280;56261;51.580;4.578;2022-12-22T14:21:41;100638.69;;;8.71;100.00
69153;BME280;56261;51.580;4.578;2022-12-22T14:24:17;100642.81;;;8.66;100.00
69153;BME280;56261;51.580;4.578;2022-12-22T14:26:43;100634.00;;;8.65;100.00
69153;BME280;56261;51.580;4.578;2022-12-22T14:29:15;100634.50;;;8.61;100.00
69153;BME280;56261;51.580;4.578;2022-12-22T14:32:10;100626.88;;;8.66;100.00
69153;BME280;56261;51.580;4.578;2022-12-22T14:34:37;100621.22;;;8.61;100.00
69153;BME280;56261;51.580;4.578;2022-12-22T14:37:02;100630.88;;;8.62;100.00
69153;BME280;56261;51.580;4.578;2022-12-22T14:39:30;100625.69;;;8.60;100.00
69153;BME280;56261;51.580;4.578;2022-12-22T14:41:58;100621.53;;;8.58;100.00
69153;BME280;56261;51.580;4.578;2022-12-22T14:44:34;100626.69;;;8.59;100.00
69153;BME280;56261;51.580;4.578;2022-12-22T14:49:30;100611.06;;;8.56;100.00
69153;BME280;56261;51.580;4.578;2022-12-22T14:52:05;100607.75;;;8.54;100.00
69153;BME280;56261;51.580;4.578;2022-12-22T14:54:31;100604.94;;;8.64;100.00
69153;BME280;56261;51.580;4.578;2022-12-22T14:57:03;100596.63;;;8.59;100.00
69153;BME280;56261;51.580;4.578;2022-12-22T14:59:29;100600.28;;;8.58;100.00
69153;BME280;56261;51.580;4.578;2022-12-22T15:01:57;100602.44;;;8.62;100.00
69153;BME280;56261;51.580;4.578;2022-12-22T15:04:23;100591.16;;;8.60;100.00
69153;BME280;56261;51.580;4.578;2022-12-22T15:06:48;100590.81;;;8.63;100.00
69153;BME280;56261;51.580;4.578;2022-12-22T15:11:42;100583.00;;;8.70;100.00
69153;BME280;56261;51.580;4.578;2022-12-22T15:14:14;100580.84;;;8.65;100.00
69153;BME280;56261;51.580;4.578;2022-12-22T15:16:40;100582.03;;;8.71;100.00
69153;BME280;56261;51.580;4.578;2022-12-22T15:19:06;100581.03;;;8.72;100.00